Time;durP1;ratioP1;P1;durP2;ratioP2;P2;SDS_P1;SDS_P2;PMS_P1;PMS_P2;Temp;Humidity;BMP_temperature;BMP_pressure;BME280_temperature;BME280_humidity;BME280_pressure;Samples;Min_cycle;Max_cycle;Signal;HPM_P1;HPM_P2
2021/06/02 00:02:24;;;;;;;9.25;4.60;;;14.60;99.90;;;;;;5056771;28;20052;-65
2021/06/02 00:04:51;;;;;;;8.80;4.57;;;14.50;99.90;;;;;;5054540;28;20417;-65
2021/06/02 00:07:23;;;;;;;11.65;4.60;;;14.50;99.90;;;;;;5057138;28;20055;-65
2021/06/02 00:09:50;;;;;;;8.55;4.88;;;14.40;99.90;;;;;;5058446;28;20056;-65
2021/06/02 00:12:17;;;;;;;8.95;4.95;;;14.40;99.90;;;;;;5055736;28;20060;-65
2021/06/02 00:14:44;;;;;;;8.43;4.97;;;14.40;99.90;;;;;;5059138;28;20052;-65
2021/06/02 00:17:11;;;;;;;8.95;4.60;;;14.40;99.90;;;;;;5056933;28;20070;-65
2021/06/02 00:19:37;;;;;;;11.55;5.05;;;14.50;99.90;;;;;;5057192;28;20051;-65
2021/06/02 00:22:06;;;;;;;7.97;4.15;;;14.50;99.90;;;;;;5061028;28;20052;-65
2021/06/02 00:24:34;;;;;;;9.05;4.78;;;14.40;99.90;;;;;;5061488;28;20049;-66
2021/06/02 00:27:05;;;;;;;12.35;4.82;;;14.30;99.90;;;;;;5061151;28;20052;-65
2021/06/02 00:29:34;;;;;;;8.40;4.93;;;14.30;99.90;;;;;;5063748;28;20052;-65
2021/06/02 00:32:02;;;;;;;8.40;4.63;;;14.40;99.90;;;;;;5062034;28;20056;-65
2021/06/02 00:34:30;;;;;;;9.98;6.03;;;14.30;99.90;;;;;;5061964;28;20063;-65
2021/06/02 00:36:59;;;;;;;14.13;6.35;;;14.30;99.90;;;;;;5062153;28;20048;-65
2021/06/02 00:39:26;;;;;;;9.25;5.82;;;14.10;99.90;;;;;;5062891;28;20059;-65
2021/06/02 00:41:55;;;;;;;9.23;4.90;;;14.00;99.90;;;;;;5060695;28;20649;-65
2021/06/02 00:44:23;;;;;;;9.45;5.55;;;14.20;99.90;;;;;;5060156;28;20520;-65
2021/06/02 00:46:51;;;;;;;10.57;5.13;;;14.00;99.90;;;;;;5064238;28;20481;-66
2021/06/02 00:49:23;;;;;;;14.85;5.07;;;14.00;99.90;;;;;;5059408;28;20058;-65
2021/06/02 00:51:51;;;;;;;10.05;5.57;;;13.90;99.90;;;;;;5060612;28;20058;-65
2021/06/02 00:54:19;;;;;;;8.77;5.13;;;13.90;99.90;;;;;;5062047;28;20131;-65
2021/06/02 00:56:50;;;;;;;11.05;5.20;;;13.80;99.90;;;;;;5060998;28;21036;-65
2021/06/02 00:59:22;;;;;;;10.68;4.85;;;13.70;99.90;;;;;;5061394;28;20067;-65
2021/06/02 01:01:49;;;;;;;12.25;5.60;;;13.70;99.90;;;;;;5061184;28;20078;-65
2021/06/02 01:04:16;;;;;;;10.38;4.47;;;13.70;99.90;;;;;;5058667;28;20045;-65
2021/06/02 01:06:45;;;;;;;12.02;5.18;;;13.80;99.90;;;;;;5062583;28;20049;-65
2021/06/02 01:09:12;;;;;;;11.00;5.45;;;13.80;99.90;;;;;;5058894;28;20063;-65
2021/06/02 01:11:42;;;;;;;8.85;5.43;;;13.70;99.90;;;;;;5057902;28;20052;-65
2021/06/02 01:14:09;;;;;;;9.32;5.03;;;13.60;99.90;;;;;;5061623;28;21278;-65
2021/06/02 01:16:37;;;;;;;9.23;5.15;;;13.70;99.90;;;;;;5060481;28;20067;-65
2021/06/02 01:19:04;;;;;;;9.25;4.90;;;13.70;99.90;;;;;;5060163;28;20118;-65
2021/06/02 01:21:32;;;;;;;11.00;4.93;;;13.60;99.90;;;;;;5062383;28;20049;-65
2021/06/02 01:24:01;;;;;;;11.82;5.07;;;13.60;99.90;;;;;;5058721;28;20410;-65
2021/06/02 01:26:30;;;;;;;8.02;4.90;;;13.50;99.90;;;;;;5057725;28;20501;-65
2021/06/02 01:28:57;;;;;;;10.15;5.03;;;13.50;99.90;;;;;;5058672;28;20543;-65
2021/06/02 01:31:49;;;;;;;9.57;4.97;;;13.30;99.90;;;;;;5059706;28;20052;-65
2021/06/02 01:34:33;;;;;;;10.23;5.13;;;13.40;99.90;;;;;;5060985;28;20059;-65
2021/06/02 01:37:24;;;;;;;11.45;5.25;;;13.40;99.90;;;;;;5061990;28;20047;-65
2021/06/02 01:40:08;;;;;;;9.07;4.90;;;13.30;99.90;;;;;;5061857;28;20928;-65
2021/06/02 01:42:44;;;;;;;9.60;5.55;;;13.40;99.90;;;;;;5059516;28;20064;-65
2021/06/02 01:45:51;;;;;;;10.63;5.45;;;13.30;99.90;;;;;;5060913;28;20109;-65
2021/06/02 01:48:40;;;;;;;7.85;5.05;;;13.20;99.90;;;;;;5061322;28;20071;-65
2021/06/02 01:51:44;;;;;;;9.63;5.45;;;13.20;99.90;;;;;;5061628;28;20463;-65
2021/06/02 01:54:45;;;;;;;7.88;5.07;;;13.10;99.90;;;;;;5059084;28;20104;-65
2021/06/02 01:57:48;;;;;;;9.70;5.22;;;13.00;99.90;;;;;;5059380;28;20416;-65
2021/06/02 02:00:43;;;;;;;12.68;5.45;;;12.90;99.90;;;;;;5056323;28;20055;-65
2021/06/02 02:03:47;;;;;;;9.20;5.38;;;12.90;99.90;;;;;;5051889;28;20063;-65
2021/06/02 02:06:56;;;;;;;12.55;5.30;;;12.90;99.90;;;;;;5059142;28;20051;-65
2021/06/02 02:09:35;;;;;;;9.43;5.55;;;12.90;99.90;;;;;;5036277;28;20068;-65
2021/06/02 02:12:10;;;;;;;11.57;5.70;;;12.90;99.90;;;;;;5058015;28;20048;-65
2021/06/02 02:14:53;;;;;;;11.52;5.65;;;12.90;99.90;;;;;;5058476;28;20056;-65
2021/06/02 02:17:41;;;;;;;11.40;5.60;;;12.90;99.90;;;;;;5059446;28;20554;-65
2021/06/02 02:20:18;;;;;;;10.77;5.70;;;12.90;99.90;;;;;;5059173;28;20079;-65
2021/06/02 02:23:14;;;;;;;9.43;5.30;;;13.00;99.90;;;;;;5059069;28;20052;-65
2021/06/02 02:25:52;;;;;;;9.38;5.50;;;13.00;99.90;;;;;;5058447;28;20051;-64
2021/06/02 02:28:51;;;;;;;13.82;5.45;;;13.00;99.90;;;;;;5055692;28;20063;-64
2021/06/02 02:31:47;;;;;;;9.00;5.13;;;13.00;99.90;;;;;;5045462;28;20367;-65
2021/06/02 02:34:42;;;;;;;10.45;5.60;;;13.10;99.90;;;;;;5060123;28;20058;-64
2021/06/02 02:37:16;;;;;;;9.88;5.97;;;13.00;99.90;;;;;;5055877;28;20052;-64
2021/06/02 02:39:53;;;;;;;9.93;5.35;;;13.00;99.90;;;;;;5060537;28;20064;-64
2021/06/02 02:42:26;;;;;;;10.52;5.82;;;13.10;99.90;;;;;;5058343;28;20060;-64
2021/06/02 02:45:09;;;;;;;10.40;5.90;;;13.10;99.90;;;;;;5058914;28;20076;-64
2021/06/02 02:47:42;;;;;;;10.32;6.68;;;13.00;99.90;;;;;;5058612;28;20052;-64
2021/06/02 02:50:16;;;;;;;9.43;5.03;;;13.00;99.90;;;;;;5059050;28;20056;-64
2021/06/02 02:52:55;;;;;;;9.25;5.07;;;13.00;99.90;;;;;;5056796;28;20796;-64
2021/06/02 02:55:28;;;;;;;10.45;5.50;;;13.10;99.90;;;;;;5059396;28;20044;-64
2021/06/02 02:58:01;;;;;;;10.25;5.68;;;13.00;99.90;;;;;;5057550;28;21104;-64
2021/06/02 03:00:35;;;;;;;14.63;6.32;;;13.00;99.90;;;;;;5059479;28;20067;-64
2021/06/02 03:03:09;;;;;;;10.75;5.70;;;13.00;99.90;;;;;;5059483;28;20059;-64
2021/06/02 03:05:53;;;;;;;9.80;5.85;;;13.10;99.90;;;;;;5058828;28;20067;-64
2021/06/02 03:08:27;;;;;;;10.07;5.55;;;13.30;99.90;;;;;;5058900;28;20424;-64
2021/06/02 03:11:04;;;;;;;13.98;5.55;;;13.30;99.90;;;;;;5058671;28;20416;-64
2021/06/02 03:13:41;;;;;;;9.85;5.80;;;13.30;99.90;;;;;;5059354;28;20056;-64
2021/06/02 03:16:12;;;;;;;10.45;5.65;;;13.40;99.90;;;;;;5056667;28;20056;-64
2021/06/02 03:18:44;;;;;;;9.93;6.00;;;13.30;99.90;;;;;;5059438;28;20056;-64
2021/06/02 03:21:59;;;;;;;11.85;5.45;;;13.20;99.90;;;;;;5057369;28;20106;-64
2021/06/02 03:25:00;;;;;;;11.45;5.65;;;13.20;99.90;;;;;;5024321;28;20105;-64
2021/06/02 03:27:33;;;;;;;11.88;6.28;;;13.30;99.90;;;;;;5056737;28;20538;-64
2021/06/02 03:30:12;;;;;;;16.23;6.50;;;13.10;99.90;;;;;;5056760;28;20076;-65
2021/06/02 03:32:56;;;;;;;14.15;7.05;;;13.10;99.90;;;;;;5055551;28;20393;-64
2021/06/02 03:35:30;;;;;;;11.15;6.40;;;13.10;99.90;;;;;;5058678;28;20174;-64
2021/06/02 03:38:09;;;;;;;11.75;6.32;;;13.10;99.90;;;;;;5056223;28;20127;-64
2021/06/02 03:40:51;;;;;;;12.32;6.40;;;13.10;99.90;;;;;;5058523;28;20044;-64
2021/06/02 03:43:24;;;;;;;11.90;6.75;;;13.10;99.90;;;;;;5056110;28;20559;-64
2021/06/02 03:46:09;;;;;;;11.35;6.20;;;13.10;99.90;;;;;;5056355;28;20049;-64
2021/06/02 03:48:45;;;;;;;11.55;6.15;;;13.10;99.90;;;;;;5059658;28;20365;-64
2021/06/02 03:51:30;;;;;;;13.52;6.57;;;13.10;99.90;;;;;;5057725;28;20668;-65
2021/06/02 03:54:11;;;;;;;14.85;6.28;;;13.10;99.90;;;;;;5059606;28;20049;-64
2021/06/02 03:57:14;;;;;;;10.50;5.82;;;13.20;99.90;;;;;;5058413;28;20064;-64
2021/06/02 03:59:43;;;;;;;14.27;6.93;;;13.40;99.90;;;;;;5057309;28;20053;-64
2021/06/02 04:02:19;;;;;;;13.35;6.60;;;13.40;99.90;;;;;;5058836;28;20056;-64
2021/06/02 04:05:15;;;;;;;12.13;6.25;;;13.40;99.90;;;;;;5057416;28;20078;-64
2021/06/02 04:07:51;;;;;;;13.25;6.75;;;13.50;99.90;;;;;;5040748;28;20067;-64
2021/06/02 04:10:40;;;;;;;10.63;6.60;;;13.50;99.90;;;;;;5057922;28;20052;-65
2021/06/02 04:13:19;;;;;;;11.52;6.40;;;13.60;99.90;;;;;;5058161;28;20044;-64
2021/06/02 04:15:49;;;;;;;14.98;6.80;;;13.60;99.90;;;;;;5055948;28;20048;-64
2021/06/02 04:18:19;;;;;;;13.07;6.28;;;13.50;99.90;;;;;;5055723;28;20048;-64
2021/06/02 04:20:46;;;;;;;13.00;5.90;;;13.60;99.90;;;;;;5058625;28;20203;-64
2021/06/02 04:23:15;;;;;;;13.30;6.53;;;13.60;99.90;;;;;;5058468;28;20420;-64
2021/06/02 04:25:44;;;;;;;14.80;7.38;;;13.70;99.90;;;;;;5056940;28;20079;-64
2021/06/02 04:28:14;;;;;;;13.23;7.10;;;13.80;99.90;;;;;;5055444;28;20134;-64
2021/06/02 04:30:49;;;;;;;12.13;7.38;;;13.80;99.90;;;;;;5056535;28;20514;-64
2021/06/02 04:33:17;;;;;;;12.82;6.90;;;13.90;99.90;;;;;;5060129;28;20048;-64
2021/06/02 04:35:51;;;;;;;13.50;6.97;;;13.90;99.90;;;;;;5060902;28;20052;-64
2021/06/02 04:38:20;;;;;;;15.52;7.10;;;14.00;99.90;;;;;;5057700;28;20438;-65
2021/06/02 04:40:47;;;;;;;14.60;7.05;;;13.90;99.90;;;;;;5057015;28;20337;-64
2021/06/02 04:43:16;;;;;;;12.82;7.22;;;13.90;99.90;;;;;;5058926;28;20135;-65
2021/06/02 04:45:55;;;;;;;13.25;6.80;;;14.10;99.90;;;;;;5056393;28;20059;-64
2021/06/02 04:48:22;;;;;;;12.10;7.25;;;14.10;99.90;;;;;;5056766;28;20052;-64
2021/06/02 04:51:28;;;;;;;13.43;7.35;;;14.10;99.90;;;;;;5055391;28;20052;-64
2021/06/02 04:54:34;;;;;;;13.75;8.00;;;14.20;99.90;;;;;;5039409;28;20056;-64
2021/06/02 04:57:30;;;;;;;13.73;8.02;;;14.30;99.90;;;;;;5054821;28;20144;-65
2021/06/02 05:00:25;;;;;;;16.15;7.40;;;14.30;99.90;;;;;;5057808;28;20113;-64
2021/06/02 05:03:34;;;;;;;17.20;7.60;;;14.10;99.90;;;;;;5057717;28;20071;-64
2021/06/02 05:06:42;;;;;;;15.48;7.07;;;14.20;99.90;;;;;;5056510;28;20528;-64
2021/06/02 05:09:53;;;;;;;12.35;7.22;;;14.40;99.90;;;;;;5058268;28;20421;-64
2021/06/02 05:13:08;;;;;;;16.05;7.15;;;14.50;99.90;;;;;;5059446;28;20049;-64
2021/06/02 05:16:35;;;;;;;14.27;8.25;;;14.60;99.90;;;;;;5059964;28;20051;-64
2021/06/02 05:22:44;;;;;;;18.25;8.00;;;14.70;99.90;;;;;;5060804;28;20806;-64
2021/06/02 05:25:47;;;;;;;17.70;7.68;;;14.80;99.90;;;;;;5060352;28;20386;-64
2021/06/02 05:28:43;;;;;;;14.15;7.53;;;14.80;99.90;;;;;;5059884;28;20044;-64
2021/06/02 05:31:54;;;;;;;13.27;7.70;;;14.80;99.90;;;;;;5060938;28;20052;-64
2021/06/02 05:34:53;;;;;;;18.02;7.90;;;14.90;99.90;;;;;;5058372;28;20142;-64
2021/06/02 05:37:55;;;;;;;16.45;7.28;;;14.90;99.90;;;;;;5058486;28;20127;-64
2021/06/02 05:40:41;;;;;;;18.30;7.72;;;15.00;99.90;;;;;;5062628;28;20040;-64
2021/06/02 05:43:35;;;;;;;18.15;7.47;;;15.10;99.90;;;;;;5060164;28;20056;-64
2021/06/02 05:46:49;;;;;;;13.88;7.80;;;15.00;99.90;;;;;;5058880;28;20081;-64
2021/06/02 05:49:54;;;;;;;16.60;6.75;;;15.10;99.90;;;;;;4997724;28;20068;-64
2021/06/02 05:53:03;;;;;;;17.08;7.55;;;15.10;99.90;;;;;;5027740;28;20049;-64
2021/06/02 05:55:55;;;;;;;22.02;8.35;;;14.80;99.90;;;;;;5031757;28;20056;-64
2021/06/02 05:59:02;;;;;;;14.38;7.82;;;14.90;99.90;;;;;;5057701;28;20043;-64
2021/06/02 06:01:53;;;;;;;19.77;7.32;;;14.80;99.90;;;;;;5049836;28;20067;-64
2021/06/02 06:04:52;;;;;;;28.45;8.48;;;14.80;99.90;;;;;;5058430;28;20048;-64
2021/06/02 06:07:42;;;;;;;19.35;8.52;;;14.80;99.90;;;;;;5057373;28;20580;-64
2021/06/02 06:10:38;;;;;;;24.77;7.88;;;14.80;99.90;;;;;;5026387;28;20048;-64
2021/06/02 06:13:51;;;;;;;14.40;7.22;;;14.90;99.90;;;;;;5059420;28;20052;-64
2021/06/02 06:16:47;;;;;;;17.45;7.78;;;15.00;99.90;;;;;;4997105;28;20402;-64
2021/06/02 06:19:46;;;;;;;24.98;8.32;;;15.10;99.90;;;;;;5054968;28;20056;-64
2021/06/02 06:22:49;;;;;;;26.42;8.70;;;15.20;99.90;;;;;;5058656;28;20049;-64
2021/06/02 06:25:24;;;;;;;32.83;8.68;;;15.30;99.90;;;;;;5059471;28;20416;-64
2021/06/02 06:27:56;;;;;;;27.83;8.65;;;15.30;99.90;;;;;;5058575;28;20060;-64
2021/06/02 06:30:26;;;;;;;27.15;9.68;;;15.40;99.90;;;;;;5059282;28;20515;-64
2021/06/02 06:32:56;;;;;;;21.08;7.22;;;15.60;99.90;;;;;;5060977;28;20047;-64
2021/06/02 06:35:24;;;;;;;18.27;7.95;;;15.80;99.90;;;;;;5058336;28;20071;-64
2021/06/02 06:37:56;;;;;;;19.20;7.53;;;16.00;99.90;;;;;;5058456;28;20070;-64
2021/06/02 06:40:25;;;;;;;17.25;7.97;;;16.20;99.90;;;;;;5058510;28;20047;-64
2021/06/02 06:42:55;;;;;;;19.95;7.13;;;16.30;99.90;;;;;;5058515;28;20363;-64
2021/06/02 06:45:25;;;;;;;29.27;8.23;;;16.40;99.90;;;;;;5058110;28;20052;-65
2021/06/02 06:47:53;;;;;;;19.33;6.70;;;16.50;99.90;;;;;;5055338;28;20098;-64
2021/06/02 06:50:21;;;;;;;21.05;7.53;;;16.60;99.90;;;;;;5058624;28;20494;-64
2021/06/02 06:52:50;;;;;;;21.27;6.28;;;16.80;99.90;;;;;;5060996;28;20057;-64
2021/06/02 06:55:17;;;;;;;19.35;7.78;;;17.00;99.90;;;;;;5057752;28;20500;-64
2021/06/02 06:57:46;;;;;;;19.80;6.95;;;17.00;99.90;;;;;;5055117;28;20067;-64
2021/06/02 07:00:14;;;;;;;13.60;6.10;;;17.10;99.90;;;;;;5058896;28;20052;-64
2021/06/02 07:02:44;;;;;;;16.95;6.45;;;17.20;99.90;;;;;;5057397;28;20052;-64
2021/06/02 07:05:12;;;;;;;16.65;6.82;;;17.30;99.90;;;;;;5058391;28;20056;-64
2021/06/02 07:07:42;;;;;;;12.80;6.78;;;17.30;99.90;;;;;;5057683;28;20488;-64
2021/06/02 07:10:11;;;;;;;11.85;6.18;;;17.40;99.90;;;;;;5059982;28;20101;-64
2021/06/02 07:12:39;;;;;;;11.55;5.72;;;17.40;99.90;;;;;;5057768;28;20052;-64
2021/06/02 07:15:09;;;;;;;14.90;5.75;;;17.50;99.90;;;;;;5057508;28;20075;-64
2021/06/02 07:17:39;;;;;;;11.35;5.60;;;17.60;99.90;;;;;;5057830;28;20048;-64
2021/06/02 07:20:09;;;;;;;14.50;6.28;;;17.50;99.90;;;;;;5057093;28;20044;-64
2021/06/02 07:22:40;;;;;;;16.42;6.28;;;17.70;99.90;;;;;;5060122;28;20051;-64
2021/06/02 07:25:07;;;;;;;10.68;5.63;;;17.80;99.90;;;;;;5058101;28;20052;-64
2021/06/02 07:27:36;;;;;;;13.45;5.53;;;18.20;99.90;;;;;;5056908;28;20954;-64
2021/06/02 07:30:03;;;;;;;18.33;6.03;;;18.20;99.90;;;;;;5055867;28;20421;-64
2021/06/02 07:32:31;;;;;;;13.52;5.50;;;18.30;99.90;;;;;;5057669;28;20523;-64
2021/06/02 07:34:58;;;;;;;13.77;5.70;;;18.40;99.90;;;;;;5057456;28;20105;-64
2021/06/02 07:37:24;;;;;;;11.57;4.90;;;18.50;99.90;;;;;;5057737;28;20420;-64
2021/06/02 07:39:51;;;;;;;12.18;5.13;;;18.60;99.90;;;;;;5057300;28;20063;-64
2021/06/02 07:42:17;;;;;;;16.77;5.72;;;18.80;99.90;;;;;;5058333;28;20114;-64
2021/06/02 07:44:44;;;;;;;18.50;4.20;;;18.80;99.90;;;;;;5060898;28;20527;-64
2021/06/02 07:47:10;;;;;;;8.30;3.67;;;19.00;99.90;;;;;;5059000;28;20051;-64
2021/06/02 07:49:38;;;;;;;8.45;4.13;;;19.20;99.90;;;;;;5058315;28;20052;-65
2021/06/02 07:52:05;;;;;;;8.32;3.58;;;19.30;99.90;;;;;;5057938;28;20052;-64
2021/06/02 07:54:32;;;;;;;9.95;4.35;;;19.40;99.90;;;;;;5055135;28;20060;-64
2021/06/02 07:56:58;;;;;;;17.98;4.38;;;19.50;99.90;;;;;;5056568;28;20060;-64
2021/06/02 07:59:25;;;;;;;7.97;3.22;;;19.60;99.90;;;;;;5059415;28;20047;-64
2021/06/02 08:01:51;;;;;;;5.78;3.10;;;19.70;99.90;;;;;;5058639;28;20053;-64
2021/06/02 08:04:18;;;;;;;8.85;2.97;;;19.90;99.90;;;;;;5055828;28;20056;-64
2021/06/02 08:06:46;;;;;;;6.20;2.85;;;20.20;99.90;;;;;;5054946;28;20060;-64
2021/06/02 08:09:17;;;;;;;5.55;2.60;;;20.30;99.90;;;;;;5055400;28;20056;-65
2021/06/02 08:11:44;;;;;;;4.30;2.20;;;20.70;99.90;;;;;;5056649;28;20048;-64
2021/06/02 08:14:11;;;;;;;5.40;2.30;;;20.80;99.90;;;;;;5058126;28;20053;-65
2021/06/02 08:16:37;;;;;;;4.88;2.30;;;21.00;99.90;;;;;;5057691;28;20052;-64
2021/06/02 08:19:04;;;;;;;3.85;2.13;;;21.20;99.90;;;;;;5053939;28;20068;-65
2021/06/02 08:21:31;;;;;;;10.45;2.20;;;21.60;99.90;;;;;;5059540;28;20097;-65
2021/06/02 08:23:58;;;;;;;4.50;2.00;;;21.60;99.90;;;;;;5057048;28;20402;-65
2021/06/02 08:26:25;;;;;;;5.70;2.20;;;21.60;99.90;;;;;;5060356;28;20044;-64
2021/06/02 08:28:52;;;;;;;5.82;2.05;;;21.50;99.90;;;;;;5056749;28;20053;-64
2021/06/02 08:31:19;;;;;;;5.32;2.63;;;21.50;99.90;;;;;;5057471;28;20256;-64
2021/06/02 08:33:45;;;;;;;15.05;2.97;;;21.80;99.90;;;;;;5058025;28;20052;-64
2021/06/02 08:36:12;;;;;;;7.25;2.38;;;22.20;99.90;;;;;;5059240;28;20056;-67
2021/06/02 08:38:38;;;;;;;6.90;2.30;;;22.30;98.30;;;;;;5054004;28;20060;-67
2021/06/02 08:41:08;;;;;;;3.85;2.30;;;22.40;98.50;;;;;;5056713;28;20048;-67
2021/06/02 08:43:35;;;;;;;5.00;2.10;;;22.80;98.10;;;;;;5059499;28;20055;-65
2021/06/02 08:46:02;;;;;;;6.10;2.00;;;23.20;96.00;;;;;;5062443;28;20436;-65
2021/06/02 08:48:29;;;;;;;4.93;1.90;;;23.60;96.00;;;;;;5062206;28;20053;-65
2021/06/02 08:50:56;;;;;;;4.00;2.20;;;23.90;94.20;;;;;;5060458;28;20054;-64
2021/06/02 08:53:22;;;;;;;4.97;2.30;;;23.90;93.90;;;;;;5063041;28;20116;-67
2021/06/02 08:55:49;;;;;;;7.55;2.17;;;24.30;93.30;;;;;;5060460;28;20082;-68
2021/06/02 08:58:22;;;;;;;6.03;2.50;;;24.60;92.60;;;;;;5060209;28;20135;-67
2021/06/02 09:00:49;;;;;;;3.28;1.85;;;25.60;90.90;;;;;;5064274;28;20079;-65
2021/06/02 09:03:16;;;;;;;11.00;2.40;;;26.40;90.20;;;;;;5059804;28;20469;-65
2021/06/02 09:05:43;;;;;;;3.90;1.95;;;26.70;87.50;;;;;;5059827;28;20053;-65
2021/06/02 09:08:14;;;;;;;5.43;2.50;;;27.20;83.90;;;;;;5062226;28;20321;-66
2021/06/02 09:10:42;;;;;;;7.97;2.60;;;28.10;83.20;;;;;;5062198;28;20048;-65
2021/06/02 09:13:16;;;;;;;5.00;2.17;;;28.90;79.80;;;;;;5059844;28;20059;-65
2021/06/02 09:15:47;;;;;;;5.03;2.05;;;29.00;76.20;;;;;;5064119;28;20477;-66
2021/06/02 09:18:18;;;;;;;4.32;1.90;;;29.10;71.50;;;;;;5061835;28;20043;-66
2021/06/02 09:20:46;;;;;;;5.82;2.05;;;29.20;71.20;;;;;;5060203;28;20113;-66
2021/06/02 09:23:31;;;;;;;5.85;2.40;;;28.90;68.80;;;;;;5062306;28;20063;-65
2021/06/02 09:25:59;;;;;;;5.20;2.13;;;29.00;68.30;;;;;;5061818;28;20045;-66
2021/06/02 09:28:51;;;;;;;5.13;2.25;;;29.10;68.40;;;;;;5062793;28;20044;-66
2021/06/02 09:31:28;;;;;;;6.55;2.17;;;29.40;65.60;;;;;;5062913;28;20063;-65
2021/06/02 09:33:57;;;;;;;8.50;2.78;;;29.50;64.70;;;;;;5060804;28;20132;-66
2021/06/02 09:36:28;;;;;;;3.72;2.00;;;30.40;62.70;;;;;;5062406;28;20064;-66
2021/06/02 09:38:58;;;;;;;5.53;2.30;;;30.40;60.00;;;;;;5063495;28;20603;-66
2021/06/02 09:41:25;;;;;;;3.53;1.85;;;30.40;58.30;;;;;;5063278;28;20128;-66
2021/06/02 09:43:52;;;;;;;3.65;2.33;;;31.20;58.40;;;;;;5063886;28;20052;-66
2021/06/02 09:46:18;;;;;;;7.10;2.17;;;31.60;56.70;;;;;;5059958;28;20067;-66
2021/06/02 09:49:02;;;;;;;3.70;2.00;;;31.50;55.40;;;;;;5059463;28;20052;-66
2021/06/02 09:51:34;;;;;;;3.45;2.00;;;31.30;52.90;;;;;;5061561;28;20121;-66
2021/06/02 09:54:02;;;;;;;8.18;2.13;;;31.00;52.50;;;;;;5059171;28;20432;-66
2021/06/02 09:56:36;;;;;;;5.10;2.10;;;30.50;54.20;;;;;;5060881;28;20063;-66
2021/06/02 09:59:05;;;;;;;4.80;2.03;;;30.40;52.60;;;;;;5059138;28;21087;-66
2021/06/02 10:01:54;;;;;;;4.80;1.85;;;29.90;52.80;;;;;;5060382;28;20110;-66
2021/06/02 10:04:29;;;;;;;4.90;1.95;;;29.40;53.40;;;;;;5063215;28;20056;-66
2021/06/02 10:06:55;;;;;;;4.18;1.80;;;29.50;53.30;;;;;;5058498;28;20060;-65
2021/06/02 10:09:25;;;;;;;4.00;2.10;;;29.70;52.10;;;;;;5059452;28;20433;-66
2021/06/02 10:11:59;;;;;;;4.15;1.90;;;30.10;53.00;;;;;;5061113;28;20044;-66
2021/06/02 10:14:26;;;;;;;4.10;2.00;;;30.70;52.00;;;;;;5061912;28;20161;-66
2021/06/02 10:16:53;;;;;;;5.95;2.00;;;31.40;49.90;;;;;;5057824;28;20090;-66
2021/06/02 10:19:40;;;;;;;3.45;1.88;;;30.60;51.20;;;;;;5060944;28;20041;-66
2021/06/02 10:22:19;;;;;;;4.72;2.55;;;30.80;50.00;;;;;;5057520;28;20492;-66
2021/06/02 10:24:47;;;;;;;4.15;2.20;;;31.20;50.70;;;;;;5060105;28;20053;-66
2021/06/02 10:27:30;;;;;;;5.10;2.00;;;30.50;50.10;;;;;;5059721;28;20051;-70
2021/06/02 10:29:57;;;;;;;4.20;2.03;;;30.70;49.50;;;;;;5060942;28;20425;-66
2021/06/02 10:32:25;;;;;;;4.05;1.73;;;30.40;50.90;;;;;;5057986;28;20059;-66
2021/06/02 10:34:54;;;;;;;4.60;2.28;;;31.80;50.50;;;;;;5060062;28;20051;-66
2021/06/02 10:37:22;;;;;;;4.60;2.13;;;32.00;49.40;;;;;;5059286;28;20050;-66
2021/06/02 10:39:56;;;;;;;5.30;1.83;;;31.60;50.10;;;;;;5060352;28;20056;-66
2021/06/02 10:42:29;;;;;;;6.82;2.33;;;31.10;50.90;;;;;;5062643;28;20044;-66
2021/06/02 10:45:01;;;;;;;2.78;1.77;;;30.60;50.20;;;;;;5060512;28;20052;-66
2021/06/02 10:47:28;;;;;;;3.72;1.90;;;30.40;50.80;;;;;;5060377;28;20505;-66
2021/06/02 10:49:56;;;;;;;7.45;2.05;;;30.60;50.60;;;;;;5060198;28;20097;-66
2021/06/02 10:52:40;;;;;;;4.50;2.25;;;31.00;49.90;;;;;;5058511;28;20093;-66
2021/06/02 10:55:33;;;;;;;5.30;2.20;;;31.40;51.40;;;;;;5059217;28;20154;-66
2021/06/02 10:58:20;;;;;;;5.50;2.10;;;32.10;50.70;;;;;;5059337;28;20055;-66
2021/06/02 11:00:49;;;;;;;4.43;1.83;;;32.60;49.50;;;;;;5060530;28;20052;-67
2021/06/02 11:03:21;;;;;;;4.82;2.08;;;31.90;49.40;;;;;;5061966;28;20468;-67
2021/06/02 11:05:56;;;;;;;9.10;2.13;;;32.90;50.20;;;;;;5061290;28;20048;-67
2021/06/02 11:08:23;;;;;;;7.03;2.30;;;33.50;47.40;;;;;;5059680;28;20051;-67
2021/06/02 11:10:54;;;;;;;3.85;2.13;;;33.10;50.00;;;;;;5058510;28;20105;-67
2021/06/02 11:13:21;;;;;;;5.30;2.20;;;32.50;48.20;;;;;;5058453;28;20451;-67
2021/06/02 11:15:48;;;;;;;7.07;2.17;;;33.10;49.50;;;;;;5060820;28;20049;-66
2021/06/02 11:18:21;;;;;;;4.47;2.03;;;33.90;48.50;;;;;;5058541;28;20182;-67
2021/06/02 11:20:52;;;;;;;6.07;2.88;;;34.60;47.10;;;;;;5058821;28;20135;-67
2021/06/02 11:23:20;;;;;;;5.03;1.85;;;33.80;47.00;;;;;;5062148;28;20052;-67
2021/06/02 11:25:49;;;;;;;6.18;2.38;;;33.70;46.60;;;;;;5058325;28;20056;-67
2021/06/02 11:28:43;;;;;;;5.57;2.28;;;33.70;46.80;;;;;;5061540;28;20084;-67
2021/06/02 11:31:26;;;;;;;3.22;1.88;;;34.00;46.00;;;;;;5059134;28;20056;-67
2021/06/02 11:34:13;;;;;;;6.00;2.20;;;34.20;45.60;;;;;;5061221;28;20059;-67
2021/06/02 11:36:58;;;;;;;6.70;2.42;;;34.40;46.00;;;;;;5059347;28;21326;-67
2021/06/02 11:39:25;;;;;;;5.43;2.17;;;34.90;45.30;;;;;;5061610;28;20057;-67
2021/06/02 11:41:57;;;;;;;4.63;2.38;;;35.10;45.30;;;;;;5059221;28;20094;-67
2021/06/02 11:44:24;;;;;;;5.68;1.98;;;35.00;44.00;;;;;;5058536;28;20058;-67
2021/06/02 11:46:51;;;;;;;6.22;2.92;;;34.60;44.40;;;;;;5061576;28;20388;-67
2021/06/02 11:49:28;;;;;;;3.28;2.03;;;35.10;44.20;;;;;;5057696;28;20564;-67
2021/06/02 11:52:05;;;;;;;5.55;2.17;;;34.20;45.60;;;;;;5060630;28;20044;-67
2021/06/02 11:54:46;;;;;;;4.95;2.03;;;33.40;45.90;;;;;;5059587;28;20106;-67
2021/06/02 11:57:31;;;;;;;8.98;2.40;;;33.10;47.20;;;;;;5057968;28;20153;-67
2021/06/02 12:00:00;;;;;;;4.75;2.15;;;33.30;47.30;;;;;;5060726;28;20158;-66
2021/06/02 12:02:27;;;;;;;4.88;2.00;;;32.80;46.70;;;;;;5059905;28;20056;-67
2021/06/02 12:04:53;;;;;;;5.35;2.47;;;33.20;46.40;;;;;;5059500;28;20048;-67
2021/06/02 12:07:22;;;;;;;6.03;2.47;;;33.20;46.00;;;;;;5059218;28;20055;-67
2021/06/02 12:09:50;;;;;;;4.03;1.83;;;33.60;46.50;;;;;;5060010;28;20158;-66
2021/06/02 12:12:17;;;;;;;3.58;2.10;;;33.40;47.10;;;;;;5057757;28;20047;-67
2021/06/02 12:14:51;;;;;;;4.10;2.10;;;33.40;46.20;;;;;;5062833;28;20466;-67
2021/06/02 12:17:17;;;;;;;7.07;2.30;;;32.70;46.70;;;;;;5060705;28;20053;-67
2021/06/02 12:19:44;;;;;;;5.97;1.95;;;33.30;46.90;;;;;;5059979;28;20172;-67
2021/06/02 12:22:13;;;;;;;5.32;2.20;;;33.30;46.90;;;;;;5062918;28;20145;-67
2021/06/02 12:24:41;;;;;;;3.78;2.10;;;33.70;47.00;;;;;;5059856;28;20057;-67
2021/06/02 12:27:15;;;;;;;3.47;2.17;;;33.70;45.60;;;;;;5057310;28;20049;-67
2021/06/02 12:29:41;;;;;;;4.53;1.80;;;34.00;46.80;;;;;;5058208;28;20052;-67
2021/06/02 12:32:08;;;;;;;8.20;1.90;;;34.30;45.90;;;;;;5060092;28;20051;-67
2021/06/02 12:34:36;;;;;;;4.80;2.30;;;34.90;45.50;;;;;;5059573;28;20477;-67
2021/06/02 12:37:07;;;;;;;3.80;1.98;;;33.80;44.70;;;;;;5057419;28;20083;-67
2021/06/02 12:39:34;;;;;;;4.15;2.00;;;33.30;45.90;;;;;;5058675;28;20835;-66
2021/06/02 12:42:04;;;;;;;11.50;2.05;;;33.00;45.40;;;;;;5058912;28;20076;-66
2021/06/02 12:44:35;;;;;;;2.55;1.88;;;32.40;46.10;;;;;;5058675;28;20189;-67
2021/06/02 12:47:05;;;;;;;6.43;2.10;;;32.40;45.70;;;;;;5057438;28;20147;-67
2021/06/02 12:49:32;;;;;;;3.45;1.48;;;33.20;46.60;;;;;;5059982;28;20131;-67
2021/06/02 12:52:00;;;;;;;3.15;1.60;;;34.30;45.50;;;;;;5058598;28;20340;-67
2021/06/02 12:54:28;;;;;;;4.63;2.08;;;35.00;45.00;;;;;;5059391;28;20437;-67
2021/06/02 12:56:55;;;;;;;3.75;1.83;;;35.30;44.90;;;;;;5059787;28;20492;-67
2021/06/02 12:59:27;;;;;;;4.55;1.73;;;35.30;44.10;;;;;;5058242;28;20048;-67
2021/06/02 13:01:58;;;;;;;6.93;1.70;;;34.50;44.20;;;;;;5058286;28;20062;-67
2021/06/02 13:04:25;;;;;;;6.45;1.80;;;34.30;44.40;;;;;;5058061;28;20056;-67
2021/06/02 13:06:53;;;;;;;7.50;2.17;;;34.50;44.20;;;;;;5059316;28;20081;-67
2021/06/02 13:09:21;;;;;;;20.15;2.80;;;34.30;44.80;;;;;;5059836;28;20049;-67
2021/06/02 13:11:47;;;;;;;4.30;1.90;;;34.60;45.10;;;;;;5060413;28;20048;-67
2021/06/02 13:14:15;;;;;;;5.10;1.73;;;34.10;43.40;;;;;;5060177;28;20056;-67
2021/06/02 13:16:51;;;;;;;3.88;1.90;;;33.40;44.50;;;;;;5060531;28;20048;-67
2021/06/02 13:19:17;;;;;;;2.88;1.83;;;33.80;43.70;;;;;;5061157;28;20143;-67
2021/06/02 13:21:49;;;;;;;4.07;2.00;;;33.80;43.20;;;;;;5059726;28;20059;-67
2021/06/02 13:24:18;;;;;;;4.03;1.52;;;33.50;43.00;;;;;;5057514;28;20161;-67
2021/06/02 13:26:48;;;;;;;3.85;1.80;;;33.80;44.30;;;;;;5060180;28;20497;-67
2021/06/02 13:29:15;;;;;;;4.18;1.60;;;34.60;42.40;;;;;;5062221;28;20048;-67
2021/06/02 13:31:45;;;;;;;7.50;1.63;;;34.40;43.10;;;;;;5063458;28;20127;-67